Aviation Digital Data Service (ADDS)

Output produced by METARs form (1157 UTC 22 January 2022)
found at http://aviationweather.gov/metar/data/
 
METAR text: EGJB 221150Z 35004KT 320V030 9999 BKN020 07/03 Q1039
Conditions at: EGJB (GUERNSEY AIRPORT, GG) observed 1150 UTC 22 January 2022
Temperature: 7.0°C (45°F)
Dewpoint: 3.0°C (37°F) [RH = 76%]
Pressure (altimeter): 30.68 inches Hg (1039.0 mb)
Winds: from the N (350 degrees) at 5 MPH (4 knots; 2.1 m/s)
Visibility: 6 or more miles (10+ km)
Ceiling: 2000 feet AGL
Clouds: broken clouds at 2000 feet AGL
Weather: no significant weather observed at this time

METAR text: EGJB 221120Z 34005KT 300V040 9999 BKN021 07/03 Q1039
Conditions at: EGJB (GUERNSEY AIRPORT, GG) observed 1120 UTC 22 January 2022
Temperature: 7.0°C (45°F)
Dewpoint: 3.0°C (37°F) [RH = 76%]
Pressure (altimeter): 30.68 inches Hg (1039.0 mb)
Winds: from the NNW (340 degrees) at 6 MPH (5 knots; 2.6 m/s)
Visibility: 6 or more miles (10+ km)
Ceiling: 2100 feet AGL
Clouds: broken clouds at 2100 feet AGL
Weather: no significant weather observed at this time

Forecast for: EGJB (GUERNSEY AIRPORT, GG)
Text: TAF EGJB 221059Z 2212/2221 36006KT 9999 BKN018
Forecast period: 1200 to 2100 UTC 22 January 2022
Forecast type: FROM: standard forecast or significant change
Winds: from the N (360 degrees) at 7 MPH (6 knots; 3.1 m/s)
Visibility: 6 or more miles (10+ km)
Ceiling: 1800 feet AGL
Clouds: broken clouds at 1800 feet AGL
Weather: no significant weather forecast for this period